createdAt,value
2024-04-12T00:02:10.669Z,4.97
2024-04-12T00:04:38.811Z,6.15
2024-04-12T00:07:15.787Z,5.70
2024-04-12T00:09:45.392Z,6.57
2024-04-12T00:12:13.862Z,5.07
2024-04-12T00:14:45.566Z,5.95
2024-04-12T00:17:17.439Z,5.30
2024-04-12T00:19:47.504Z,6.03
2024-04-12T00:22:18.357Z,4.55
2024-04-12T00:24:46.805Z,4.60
2024-04-12T00:27:16.759Z,5.05
2024-04-12T00:29:47.601Z,4.93
2024-04-12T00:32:17.637Z,4.93
2024-04-12T00:34:49.918Z,5.15
2024-04-12T00:37:18.966Z,5.10
2024-04-12T00:39:51.485Z,5.30
2024-04-12T00:42:32.569Z,4.85
2024-04-12T00:45:00.533Z,5.05
2024-04-12T00:47:34.867Z,5.45
2024-04-12T00:50:05.879Z,5.20
2024-04-12T00:52:38.690Z,6.10
2024-04-12T00:55:10.946Z,5.00
2024-04-12T00:57:42.118Z,5.28
2024-04-12T01:00:20.564Z,5.53
2024-04-12T01:02:50.355Z,5.32
2024-04-12T01:05:19.935Z,5.40
2024-04-12T01:07:52.467Z,5.03
2024-04-12T01:10:31.694Z,6.25
2024-04-12T01:13:03.477Z,6.90
2024-04-12T01:15:39.461Z,5.72
2024-04-12T01:18:13.672Z,5.40
2024-04-12T01:20:41.753Z,5.88
2024-04-12T01:23:11.568Z,5.28
2024-04-12T01:25:39.420Z,5.30
2024-04-12T01:28:10.724Z,6.18
2024-04-12T01:30:41.263Z,6.18
2024-04-12T01:33:10.835Z,5.95
2024-04-12T01:35:38.773Z,6.25
2024-04-12T01:38:20.463Z,5.85
2024-04-12T01:41:00.401Z,6.15
2024-04-12T01:43:29.680Z,7.05
2024-04-12T01:45:57.662Z,6.40
2024-04-12T01:48:26.294Z,6.78
2024-04-12T01:50:54.309Z,5.85
2024-04-12T01:53:23.328Z,6.45
2024-04-12T01:55:54.146Z,6.32
2024-04-12T01:58:22.134Z,5.72
2024-04-12T02:00:50.848Z,6.50
2024-04-12T02:03:19.591Z,6.43
2024-04-12T02:05:50.982Z,6.35
2024-04-12T02:08:19.805Z,5.72
2024-04-12T02:10:50.345Z,6.97
2024-04-12T02:13:20.313Z,5.93
2024-04-12T02:15:50.543Z,6.00
2024-04-12T02:18:22.203Z,5.65
2024-04-12T02:20:53.427Z,6.60
2024-04-12T02:23:23.190Z,7.15
2024-04-12T02:25:52.143Z,6.55
2024-04-12T02:28:20.529Z,6.25
2024-04-12T02:30:58.299Z,6.40
2024-04-12T02:33:34.231Z,6.40
2024-04-12T02:36:03.479Z,6.93
2024-04-12T02:38:31.237Z,6.55
2024-04-12T02:40:59.533Z,7.15
2024-04-12T02:43:30.456Z,6.65
2024-04-12T02:45:59.997Z,6.97
2024-04-12T02:48:29.575Z,6.22
2024-04-12T02:51:04.866Z,6.50
2024-04-12T02:53:37.266Z,6.95
2024-04-12T02:56:12.395Z,5.40
2024-04-12T02:58:42.037Z,6.20
2024-04-12T03:01:17.669Z,5.88
2024-04-12T03:03:50.984Z,6.55
2024-04-12T03:08:49.814Z,6.15
2024-04-12T03:11:26.658Z,5.07
2024-04-12T03:14:04.950Z,5.47
2024-04-12T03:16:32.921Z,5.20
2024-04-12T03:19:02.173Z,5.18
2024-04-12T03:21:31.543Z,5.22
2024-04-12T03:23:59.174Z,4.75
2024-04-12T03:26:26.865Z,4.90
2024-04-12T03:28:56.206Z,5.00
2024-04-12T03:31:28.186Z,6.15
2024-04-12T03:33:57.712Z,5.00
2024-04-12T03:36:39.391Z,4.80
2024-04-12T03:39:32.380Z,5.03
2024-04-12T03:42:07.613Z,5.25
2024-04-12T03:44:38.207Z,5.78
2024-04-12T03:47:13.049Z,5.35
2024-04-12T03:49:44.037Z,4.85
2024-04-12T03:52:20.898Z,6.28
2024-04-12T03:54:49.593Z,5.38
2024-04-12T03:57:17.841Z,5.40
2024-04-12T03:59:46.644Z,5.70
2024-04-12T04:02:17.388Z,5.70
2024-04-12T04:04:46.693Z,6.32
2024-04-12T04:07:17.160Z,5.53
2024-04-12T04:09:45.663Z,5.28
2024-04-12T04:12:17.109Z,5.50
2024-04-12T04:14:50.032Z,5.65
2024-04-12T04:17:31.954Z,5.35
2024-04-12T04:20:07.793Z,5.70
2024-04-12T04:22:36.536Z,5.00
2024-04-12T04:25:09.693Z,5.90
2024-04-12T04:27:38.702Z,5.38
2024-04-12T04:30:07.710Z,5.50
2024-04-12T04:32:35.848Z,5.40
2024-04-12T04:35:07.620Z,6.10
2024-04-12T04:37:36.205Z,5.30
2024-04-12T04:40:10.401Z,5.65
2024-04-12T04:42:39.018Z,5.90
2024-04-12T04:45:09.092Z,5.78
2024-04-12T04:47:40.635Z,6.07
2024-04-12T04:50:11.105Z,5.85
2024-04-12T04:52:39.397Z,5.57
2024-04-12T04:55:08.979Z,5.82
2024-04-12T04:57:36.988Z,6.68
2024-04-12T05:00:08.309Z,5.70
2024-04-12T05:02:36.868Z,5.97
2024-04-12T05:05:07.750Z,6.30
2024-04-12T05:07:35.713Z,6.13
2024-04-12T05:10:15.760Z,5.78
2024-04-12T05:12:44.152Z,5.25
2024-04-12T05:15:31.887Z,5.55
2024-04-12T05:18:05.130Z,5.95
2024-04-12T05:20:43.774Z,6.00
2024-04-12T05:23:13.575Z,6.22
2024-04-12T05:25:42.635Z,6.13
2024-04-12T05:28:10.942Z,5.88
2024-04-12T05:30:38.910Z,5.72
2024-04-12T05:33:07.766Z,5.47
2024-04-12T05:35:36.360Z,6.95
2024-04-12T05:38:11.222Z,6.55
2024-04-12T05:40:42.875Z,6.60
2024-04-12T05:43:16.494Z,6.80
2024-04-12T05:45:57.182Z,7.13
2024-04-12T05:48:26.259Z,5.28
2024-04-12T05:50:56.909Z,6.38
2024-04-12T05:53:27.375Z,6.10
2024-04-12T05:56:15.016Z,6.22
2024-04-12T05:58:43.269Z,6.05
2024-04-12T06:01:12.255Z,5.85
2024-04-12T06:03:53.506Z,6.13
2024-04-12T06:06:23.264Z,5.40
2024-04-12T06:08:53.710Z,5.82
2024-04-12T06:11:23.482Z,6.57
2024-04-12T06:13:55.495Z,6.32
2024-04-12T06:16:24.203Z,5.13
2024-04-12T06:18:52.636Z,6.00
2024-04-12T06:21:20.630Z,4.95
2024-04-12T06:23:52.582Z,5.60
2024-04-12T06:26:23.819Z,5.05
2024-04-12T06:28:58.216Z,4.38
2024-04-12T06:31:35.663Z,5.18
2024-04-12T06:34:13.830Z,4.85
2024-04-12T06:36:46.851Z,4.10
2024-04-12T06:39:16.663Z,4.43
2024-04-12T06:41:46.776Z,4.82
2024-04-12T06:44:20.576Z,4.20
2024-04-12T06:46:59.240Z,4.40
2024-04-12T06:49:29.842Z,5.05
2024-04-12T06:52:11.313Z,4.47
2024-04-12T06:54:44.046Z,4.68
2024-04-12T06:57:19.413Z,4.85
2024-04-12T06:59:49.220Z,4.47
2024-04-12T07:02:16.995Z,4.35
2024-04-12T07:04:44.770Z,4.38
2024-04-12T07:07:13.768Z,4.15
2024-04-12T07:09:50.322Z,4.50
2024-04-12T07:12:23.673Z,5.57
2024-04-12T07:14:55.739Z,4.90
2024-04-12T07:17:25.447Z,5.38
2024-04-12T07:19:55.535Z,4.97
2024-04-12T07:22:27.618Z,4.95
2024-04-12T07:24:56.997Z,5.90
2024-04-12T07:27:29.235Z,4.45
2024-04-12T07:29:59.095Z,4.47
2024-04-12T07:32:37.333Z,4.65
2024-04-12T07:35:26.599Z,4.30
2024-04-12T07:37:59.547Z,4.13
2024-04-12T07:40:36.558Z,4.20
2024-04-12T07:43:14.723Z,4.28
2024-04-12T07:45:44.713Z,4.70
2024-04-12T07:48:21.232Z,4.18
2024-04-12T07:51:02.877Z,3.67
2024-04-12T07:53:35.814Z,3.67
2024-04-12T07:56:10.370Z,3.92
2024-04-12T07:58:41.894Z,3.90
2024-04-12T08:01:16.511Z,3.63
2024-04-12T08:03:51.571Z,3.63
2024-04-12T08:06:37.672Z,4.40
2024-04-12T08:09:06.193Z,5.28
2024-04-12T08:11:42.994Z,3.88
2024-04-12T08:14:21.694Z,3.95
2024-04-12T08:16:54.106Z,3.97
2024-04-12T08:19:39.373Z,4.55
2024-04-12T08:22:08.248Z,4.95
2024-04-12T08:24:36.446Z,4.60
2024-04-12T08:27:04.292Z,4.95
2024-04-12T08:29:33.961Z,5.10
2024-04-12T08:32:11.600Z,4.30
2024-04-12T08:34:45.267Z,5.50
2024-04-12T08:37:20.230Z,5.07
2024-04-12T08:39:53.996Z,4.90
2024-04-12T08:42:33.533Z,5.03
2024-04-12T08:45:14.156Z,5.45
2024-04-12T08:47:55.857Z,4.60
2024-04-12T08:50:25.510Z,4.90
2024-04-12T08:52:55.461Z,3.88
2024-04-12T08:55:30.360Z,4.90
2024-04-12T08:58:02.469Z,4.55
2024-04-12T09:00:34.595Z,5.57
2024-04-12T09:03:25.579Z,4.78
2024-04-12T09:05:57.539Z,5.85
2024-04-12T09:08:32.332Z,5.05
2024-04-12T09:11:05.159Z,5.13
2024-04-12T09:13:36.006Z,5.13
2024-04-12T09:16:09.574Z,4.82
2024-04-12T09:18:47.372Z,5.20
2024-04-12T09:21:26.606Z,5.45
2024-04-12T09:23:57.887Z,5.60
2024-04-12T09:26:40.783Z,5.57
2024-04-12T09:29:12.566Z,5.38
2024-04-12T09:32:18.955Z,5.60
2024-04-12T09:34:57.317Z,6.05
2024-04-12T09:37:31.842Z,5.40
2024-04-12T09:40:03.136Z,4.97
2024-04-12T09:42:54.592Z,5.15
2024-04-12T09:45:29.039Z,4.97
2024-04-12T09:48:16.821Z,5.97
2024-04-12T09:51:03.190Z,5.88
2024-04-12T09:53:50.182Z,5.43
2024-04-12T09:56:36.943Z,5.93
2024-04-12T09:59:25.091Z,6.10
2024-04-12T10:02:14.030Z,5.72
2024-04-12T10:05:01.563Z,6.00
2024-04-12T10:07:49.242Z,5.25
2024-04-12T10:10:37.264Z,6.05
2024-04-12T10:13:24.793Z,6.85
2024-04-12T10:16:14.479Z,6.25
2024-04-12T10:19:01.247Z,6.90
2024-04-12T10:21:48.282Z,5.93
2024-04-12T10:24:34.289Z,7.07
2024-04-12T10:27:22.145Z,6.43
2024-04-12T10:30:09.635Z,6.82
2024-04-12T10:32:59.553Z,6.25
2024-04-12T10:35:46.038Z,7.20
2024-04-12T10:38:27.209Z,7.57
2024-04-12T10:41:08.863Z,6.40
2024-04-12T10:46:06.664Z,5.70
2024-04-12T10:48:35.260Z,5.35
2024-04-12T10:51:06.095Z,5.53
2024-04-12T10:53:35.226Z,6.43
2024-04-12T10:56:04.151Z,5.47
2024-04-12T10:58:35.090Z,6.03
2024-04-12T11:01:05.837Z,5.82
2024-04-12T11:03:39.665Z,5.65
2024-04-12T11:06:19.557Z,7.53
2024-04-12T11:08:47.750Z,5.25
2024-04-12T11:11:20.571Z,6.03
2024-04-12T11:13:49.094Z,4.90
2024-04-12T11:16:39.552Z,5.40
2024-04-12T11:19:34.985Z,5.18
2024-04-12T11:22:21.302Z,4.70
2024-04-12T11:25:07.346Z,5.10
2024-04-12T11:27:53.733Z,4.53
2024-04-12T11:30:41.941Z,4.78
2024-04-12T11:33:16.810Z,5.03
2024-04-12T11:35:51.185Z,5.10
2024-04-12T11:38:18.893Z,4.85
2024-04-12T11:40:46.897Z,5.22
2024-04-12T11:43:14.613Z,4.53
2024-04-12T11:45:42.515Z,3.88
2024-04-12T11:48:16.377Z,3.95
2024-04-12T11:50:44.719Z,4.85
2024-04-12T11:53:12.575Z,4.13
2024-04-12T11:55:43.719Z,4.60
2024-04-12T11:58:11.443Z,4.53
2024-04-12T12:00:41.555Z,4.10
2024-04-12T12:03:17.875Z,4.20
2024-04-12T12:05:47.623Z,4.28
2024-04-12T12:08:15.409Z,4.60
2024-04-12T12:10:45.613Z,4.68
2024-04-12T12:13:17.631Z,4.60
2024-04-12T12:15:45.811Z,4.43
2024-04-12T12:18:13.525Z,4.22
2024-04-12T12:20:44.875Z,4.65
2024-04-12T12:23:12.709Z,4.20
2024-04-12T12:25:40.847Z,4.97
2024-04-12T12:28:08.462Z,4.60
2024-04-12T12:30:36.083Z,4.75
2024-04-12T12:33:08.940Z,4.65
2024-04-12T12:38:06.489Z,4.65
2024-04-12T12:40:34.357Z,4.75
2024-04-12T12:43:06.147Z,4.55
2024-04-12T12:45:35.860Z,4.78
2024-04-12T12:48:04.600Z,4.80
2024-04-12T12:50:32.366Z,5.28
2024-04-12T12:53:00.834Z,5.07
2024-04-12T12:55:30.140Z,5.57
2024-04-12T12:58:12.892Z,4.75
2024-04-12T13:00:45.990Z,5.72
2024-04-12T13:03:19.506Z,4.55
2024-04-12T13:05:49.720Z,5.43
2024-04-12T13:08:17.914Z,4.78
2024-04-12T13:10:47.958Z,5.32
2024-04-12T13:13:23.110Z,5.38
2024-04-12T13:15:58.988Z,4.88
2024-04-12T13:18:32.937Z,4.70
2024-04-12T13:21:00.917Z,5.38
2024-04-12T13:23:28.784Z,4.25
2024-04-12T13:25:56.865Z,5.00
2024-04-12T13:28:25.285Z,5.40
2024-04-12T13:30:53.042Z,4.95
2024-04-12T13:33:20.940Z,4.78
2024-04-12T13:35:48.702Z,5.80
2024-04-12T13:38:17.098Z,4.90
2024-04-12T13:40:51.838Z,4.93
2024-04-12T13:43:19.527Z,4.72
2024-04-12T13:46:07.327Z,3.97
2024-04-12T13:48:54.676Z,4.65
2024-04-12T13:51:22.828Z,4.70
2024-04-12T13:53:53.526Z,4.93
2024-04-12T13:56:22.432Z,4.60
2024-04-12T13:58:57.374Z,4.45
2024-04-12T14:01:32.249Z,4.53
2024-04-12T14:04:06.379Z,4.82
2024-04-12T14:06:36.356Z,4.97
2024-04-12T14:09:15.415Z,4.50
2024-04-12T14:11:43.773Z,5.40
2024-04-12T14:14:11.497Z,6.03
2024-04-12T14:16:43.916Z,5.18
2024-04-12T14:19:19.771Z,5.18
2024-04-12T14:21:53.213Z,5.50
2024-04-12T14:24:54.544Z,5.50
2024-04-12T14:27:24.927Z,5.70
2024-04-12T14:29:54.134Z,5.03
2024-04-12T14:32:24.158Z,5.18
2024-04-12T14:34:58.442Z,4.50
2024-04-12T14:37:33.905Z,5.68
2024-04-12T14:40:07.698Z,5.30
2024-04-12T14:42:36.346Z,5.20
2024-04-12T14:45:07.624Z,5.15
2024-04-12T14:47:35.456Z,5.80
2024-04-12T14:50:03.612Z,6.03
2024-04-12T14:52:31.283Z,6.20
2024-04-12T14:54:58.918Z,5.82
2024-04-12T14:57:26.631Z,4.68
2024-04-12T14:59:54.375Z,5.38
2024-04-12T15:02:22.565Z,5.18
2024-04-12T15:05:08.584Z,4.97
2024-04-12T15:07:54.921Z,4.68
2024-04-12T15:10:41.231Z,5.32
2024-04-12T15:13:27.344Z,4.88
2024-04-12T15:16:13.561Z,4.40
2024-04-12T15:19:00.055Z,5.57
2024-04-12T15:21:46.382Z,4.60
2024-04-12T15:24:32.550Z,5.28
2024-04-12T15:27:18.804Z,5.60
2024-04-12T15:30:05.206Z,5.50
2024-04-12T15:32:51.394Z,5.35
2024-04-12T15:35:37.773Z,5.25
2024-04-12T15:38:24.281Z,4.55
2024-04-12T15:41:10.503Z,4.63
2024-04-12T15:43:56.354Z,4.70
2024-04-12T15:46:42.508Z,5.55
2024-04-12T15:49:22.699Z,5.20
2024-04-12T15:51:52.832Z,5.20
2024-04-12T15:54:27.836Z,4.25
2024-04-12T15:57:14.554Z,4.90
2024-04-12T16:00:01.004Z,4.63
2024-04-12T16:03:04.012Z,4.47
2024-04-12T16:05:50.221Z,4.07
2024-04-12T16:08:36.557Z,4.72
2024-04-12T16:11:05.818Z,4.43
2024-04-12T16:13:36.207Z,4.82
2024-04-12T16:16:04.234Z,4.65
2024-04-12T16:18:32.944Z,4.25
2024-04-12T16:21:00.812Z,4.85
2024-04-12T16:23:30.669Z,5.10
2024-04-12T16:26:03.661Z,5.53
2024-04-12T16:28:33.758Z,4.53
2024-04-12T16:31:04.618Z,5.07
2024-04-12T16:33:35.032Z,4.95
2024-04-12T16:36:04.165Z,4.70
2024-04-12T16:38:35.013Z,5.07
2024-04-12T16:41:05.755Z,4.07
2024-04-12T16:43:34.154Z,5.03
2024-04-12T16:46:02.627Z,4.55
2024-04-12T16:48:30.442Z,4.80
2024-04-12T16:50:58.306Z,5.85
2024-04-12T16:53:26.950Z,5.32
2024-04-12T16:55:54.712Z,6.40
2024-04-12T16:58:22.320Z,5.63
2024-04-12T17:00:50.042Z,5.82
2024-04-12T17:03:17.909Z,5.97
2024-04-12T17:05:47.770Z,5.43
2024-04-12T17:08:15.846Z,6.00
2024-04-12T17:10:43.937Z,6.50
2024-04-12T17:13:11.699Z,5.95
2024-04-12T17:15:42.006Z,6.93
2024-04-12T17:18:09.827Z,5.70
2024-04-12T17:20:37.763Z,6.43
2024-04-12T17:23:05.526Z,6.70
2024-04-12T17:25:34.222Z,7.13
2024-04-12T17:28:01.877Z,7.05
2024-04-12T17:30:30.019Z,6.25
2024-04-12T17:32:57.827Z,5.32
2024-04-12T17:35:26.948Z,6.72
2024-04-12T17:37:54.686Z,6.28
2024-04-12T17:40:24.322Z,6.88
2024-04-12T17:42:52.260Z,7.13
2024-04-12T17:45:20.047Z,6.47
2024-04-12T17:47:47.767Z,6.75
2024-04-12T17:50:15.595Z,6.38
2024-04-12T17:52:44.971Z,7.18
2024-04-12T17:55:14.185Z,6.65
2024-04-12T17:57:43.336Z,6.57
2024-04-12T18:00:14.238Z,6.38
2024-04-12T18:02:42.220Z,6.55
2024-04-12T18:05:11.651Z,6.18
2024-04-12T18:07:39.339Z,6.20
2024-04-12T18:10:07.165Z,5.70
2024-04-12T18:12:34.825Z,6.43
2024-04-12T18:15:02.533Z,5.78
2024-04-12T18:17:30.266Z,5.85
2024-04-12T18:19:57.939Z,5.88
2024-04-12T18:22:25.604Z,5.70
2024-04-12T18:24:53.409Z,6.22
2024-04-12T18:27:21.256Z,6.00
2024-04-12T18:29:49.514Z,5.47
2024-04-12T18:32:20.866Z,6.00
2024-04-12T18:34:53.168Z,5.45
2024-04-12T18:37:41.476Z,5.60
2024-04-12T18:40:28.009Z,6.18
2024-04-12T18:43:15.022Z,5.68
2024-04-12T18:45:42.772Z,5.03
2024-04-12T18:48:10.531Z,5.00
2024-04-12T18:50:39.099Z,5.18
2024-04-12T18:53:06.798Z,5.15
2024-04-12T18:55:34.417Z,5.40
2024-04-12T18:58:03.273Z,5.10
2024-04-12T19:00:31.050Z,5.55
2024-04-12T19:02:58.920Z,5.60
2024-04-12T19:05:26.669Z,5.40
2024-04-12T19:07:55.391Z,5.68
2024-04-12T19:10:23.758Z,5.85
2024-04-12T19:12:51.397Z,5.30
2024-04-12T19:15:19.655Z,5.20
2024-04-12T19:17:47.606Z,4.68
2024-04-12T19:20:16.414Z,4.88
2024-04-12T19:22:46.862Z,4.68
2024-04-12T19:25:16.191Z,5.07
2024-04-12T19:27:46.331Z,4.50
2024-04-12T19:30:14.131Z,4.30
2024-04-12T19:32:42.082Z,4.65
2024-04-12T19:35:09.709Z,4.38
2024-04-12T19:37:37.607Z,5.15
2024-04-12T19:40:09.478Z,4.50
2024-04-12T19:42:37.130Z,5.57
2024-04-12T19:45:05.282Z,4.53
2024-04-12T19:47:33.088Z,4.50
2024-04-12T19:50:00.792Z,4.53
2024-04-12T19:52:28.502Z,4.70
2024-04-12T19:54:56.108Z,4.22
2024-04-12T19:57:25.397Z,4.70
2024-04-12T19:59:53.324Z,4.40
2024-04-12T20:02:23.929Z,4.70
2024-04-12T20:04:52.648Z,4.63
2024-04-12T20:07:20.419Z,4.38
2024-04-12T20:09:48.133Z,5.20
2024-04-12T20:12:21.243Z,4.78
2024-04-12T20:14:52.361Z,5.07
2024-04-12T20:17:22.132Z,4.80
2024-04-12T20:19:53.370Z,6.05
2024-04-12T20:22:24.148Z,5.20
2024-04-12T20:24:51.834Z,4.18
2024-04-12T20:27:19.556Z,4.63
2024-04-12T20:30:10.415Z,4.35
2024-04-12T20:32:38.307Z,5.10
2024-04-12T20:35:20.937Z,4.60
2024-04-12T20:37:48.925Z,5.13
2024-04-12T20:40:17.234Z,5.35
2024-04-12T20:42:44.974Z,6.53
2024-04-12T20:45:12.744Z,5.65
2024-04-12T20:47:41.535Z,5.50
2024-04-12T20:50:09.240Z,5.20
2024-04-12T20:52:37.347Z,5.03
2024-04-12T20:55:06.465Z,5.22
2024-04-12T20:57:34.314Z,5.20
2024-04-12T21:00:02.044Z,5.47
2024-04-12T21:02:29.656Z,6.43
2024-04-12T21:04:57.506Z,5.57
2024-04-12T21:07:25.362Z,6.40
2024-04-12T21:09:53.012Z,7.53
2024-04-12T21:12:20.674Z,6.15
2024-04-12T21:14:48.336Z,6.65
2024-04-12T21:17:16.328Z,6.65
2024-04-12T21:19:43.958Z,6.63
2024-04-12T21:22:12.719Z,6.05
2024-04-12T21:24:41.384Z,6.45
2024-04-12T21:27:09.063Z,6.05
2024-04-12T21:29:36.766Z,7.00
2024-04-12T21:32:04.811Z,6.78
2024-04-12T21:34:34.242Z,6.47
2024-04-12T21:37:02.988Z,6.45
2024-04-12T21:39:31.344Z,6.80
2024-04-12T21:41:59.099Z,7.32
2024-04-12T21:44:28.381Z,8.15
2024-04-12T21:46:57.277Z,7.65
2024-04-12T21:49:25.036Z,7.50
2024-04-12T21:51:52.646Z,7.80
2024-04-12T21:54:20.337Z,7.70
2024-04-12T21:56:48.150Z,7.82
2024-04-12T21:59:16.574Z,7.10
2024-04-12T22:01:44.175Z,7.40
2024-04-12T22:04:12.014Z,7.60
2024-04-12T22:06:39.635Z,7.50
2024-04-12T22:09:09.575Z,7.70
2024-04-12T22:11:37.307Z,7.40
2024-04-12T22:14:05.048Z,7.90
2024-04-12T22:16:32.875Z,7.93
2024-04-12T22:19:00.583Z,7.88
2024-04-12T22:21:28.308Z,7.63
2024-04-12T22:23:56.042Z,7.72
2024-04-12T22:26:23.770Z,8.40
2024-04-12T22:28:51.498Z,7.72
2024-04-12T22:31:20.843Z,8.23
2024-04-12T22:33:54.166Z,7.63
2024-04-12T22:36:23.125Z,8.90
2024-04-12T22:38:51.396Z,7.88
2024-04-12T22:41:20.211Z,8.45
2024-04-12T22:43:49.926Z,8.70
2024-04-12T22:46:17.624Z,7.70
2024-04-12T22:48:46.437Z,7.65
2024-04-12T22:51:25.284Z,7.50
2024-04-12T22:53:53.485Z,7.50
2024-04-12T22:56:25.102Z,7.43
2024-04-12T22:58:56.572Z,7.30
2024-04-12T23:01:24.996Z,7.40
2024-04-12T23:03:52.675Z,6.72
2024-04-12T23:06:20.396Z,5.93
2024-04-12T23:08:48.032Z,6.68
2024-04-12T23:11:15.786Z,6.50
2024-04-12T23:13:43.482Z,6.47
2024-04-12T23:16:11.096Z,6.28
2024-04-12T23:18:38.805Z,5.60
2024-04-12T23:21:06.521Z,6.03
2024-04-12T23:23:35.742Z,6.43
2024-04-12T23:26:04.125Z,5.78
2024-04-12T23:28:31.868Z,6.20
2024-04-12T23:30:59.483Z,6.68
2024-04-12T23:33:31.326Z,6.45
2024-04-12T23:35:59.067Z,6.80
2024-04-12T23:38:26.831Z,6.38
2024-04-12T23:40:54.667Z,6.57
2024-04-12T23:43:24.672Z,6.50
2024-04-12T23:45:53.629Z,6.90
2024-04-12T23:48:25.182Z,6.00
2024-04-12T23:50:52.828Z,5.93
2024-04-12T23:53:20.580Z,5.00
2024-04-12T23:55:48.265Z,5.75
2024-04-12T23:58:15.920Z,5.85
